sensor_id;sensor_type;location;lat;lon;timestamp;temperature;humidity
46732;DHT22;32477;51.474;5.696;2024-01-30T00:00:35;7.70;99.90
46732;DHT22;32477;51.474;5.696;2024-01-30T00:03:00;7.60;99.90
46732;DHT22;32477;51.474;5.696;2024-01-30T00:05:26;7.70;99.90
46732;DHT22;32477;51.474;5.696;2024-01-30T00:07:51;7.60;99.90
46732;DHT22;32477;51.474;5.696;2024-01-30T00:10:17;7.60;99.90
46732;DHT22;32477;51.474;5.696;2024-01-30T00:12:43;7.70;99.90
46732;DHT22;32477;51.474;5.696;2024-01-30T00:15:08;7.70;99.90
46732;DHT22;32477;51.474;5.696;2024-01-30T00:17:36;7.60;99.90
46732;DHT22;32477;51.474;5.696;2024-01-30T00:20:03;7.50;99.90
46732;DHT22;32477;51.474;5.696;2024-01-30T00:22:31;7.60;99.90
46732;DHT22;32477;51.474;5.696;2024-01-30T00:24:57;7.50;99.90
46732;DHT22;32477;51.474;5.696;2024-01-30T00:27:22;7.50;99.90
46732;DHT22;32477;51.474;5.696;2024-01-30T00:29:48;7.40;99.90
46732;DHT22;32477;51.474;5.696;2024-01-30T00:32:14;7.40;99.90
46732;DHT22;32477;51.474;5.696;2024-01-30T00:34:41;7.40;99.90
46732;DHT22;32477;51.474;5.696;2024-01-30T00:37:07;7.40;99.90
46732;DHT22;32477;51.474;5.696;2024-01-30T00:39:32;7.40;99.90
46732;DHT22;32477;51.474;5.696;2024-01-30T00:41:58;7.40;99.90
46732;DHT22;32477;51.474;5.696;2024-01-30T00:44:24;7.40;99.90
46732;DHT22;32477;51.474;5.696;2024-01-30T00:46:49;7.40;99.90
46732;DHT22;32477;51.474;5.696;2024-01-30T00:49:15;7.30;99.90
46732;DHT22;32477;51.474;5.696;2024-01-30T00:51:41;7.40;99.90
46732;DHT22;32477;51.474;5.696;2024-01-30T00:54:06;7.30;99.90
46732;DHT22;32477;51.474;5.696;2024-01-30T00:56:32;7.30;99.90
46732;DHT22;32477;51.474;5.696;2024-01-30T00:58:58;7.40;99.90
46732;DHT22;32477;51.474;5.696;2024-01-30T01:01:24;7.40;99.90
46732;DHT22;32477;51.474;5.696;2024-01-30T01:03:50;7.30;99.90
46732;DHT22;32477;51.474;5.696;2024-01-30T01:06:15;7.30;99.90
46732;DHT22;32477;51.474;5.696;2024-01-30T01:08:41;7.30;99.90
46732;DHT22;32477;51.474;5.696;2024-01-30T01:11:07;7.30;99.90
46732;DHT22;32477;51.474;5.696;2024-01-30T01:13:32;7.30;99.90
46732;DHT22;32477;51.474;5.696;2024-01-30T01:15:58;7.20;99.90
46732;DHT22;32477;51.474;5.696;2024-01-30T01:18:23;7.20;99.90
46732;DHT22;32477;51.474;5.696;2024-01-30T01:20:49;7.20;99.90
46732;DHT22;32477;51.474;5.696;2024-01-30T01:23:15;7.10;99.90
46732;DHT22;32477;51.474;5.696;2024-01-30T01:25:40;7.10;99.90
46732;DHT22;32477;51.474;5.696;2024-01-30T01:28:06;7.00;99.90
46732;DHT22;32477;51.474;5.696;2024-01-30T01:30:32;7.00;99.90
46732;DHT22;32477;51.474;5.696;2024-01-30T01:32:57;6.90;99.90
46732;DHT22;32477;51.474;5.696;2024-01-30T01:35:26;6.90;99.90
46732;DHT22;32477;51.474;5.696;2024-01-30T01:37:53;6.90;99.90
46732;DHT22;32477;51.474;5.696;2024-01-30T01:40:26;6.90;99.90
46732;DHT22;32477;51.474;5.696;2024-01-30T01:42:53;7.00;99.90
46732;DHT22;32477;51.474;5.696;2024-01-30T01:45:19;6.90;99.90
46732;DHT22;32477;51.474;5.696;2024-01-30T01:47:47;7.00;99.90
46732;DHT22;32477;51.474;5.696;2024-01-30T01:50:16;6.90;99.90
46732;DHT22;32477;51.474;5.696;2024-01-30T01:52:45;7.00;99.90
46732;DHT22;32477;51.474;5.696;2024-01-30T01:55:13;7.00;99.90
46732;DHT22;32477;51.474;5.696;2024-01-30T01:57:40;7.00;99.90
46732;DHT22;32477;51.474;5.696;2024-01-30T02:00:08;7.10;99.90
46732;DHT22;32477;51.474;5.696;2024-01-30T02:02:36;7.10;99.90
46732;DHT22;32477;51.474;5.696;2024-01-30T02:05:02;7.20;99.90
46732;DHT22;32477;51.474;5.696;2024-01-30T02:07:28;7.30;99.90
46732;DHT22;32477;51.474;5.696;2024-01-30T02:09:55;7.30;99.90
46732;DHT22;32477;51.474;5.696;2024-01-30T02:12:20;7.40;99.90
46732;DHT22;32477;51.474;5.696;2024-01-30T02:14:49;7.40;99.90
46732;DHT22;32477;51.474;5.696;2024-01-30T02:17:16;7.40;99.90
46732;DHT22;32477;51.474;5.696;2024-01-30T02:19:42;7.40;99.90
46732;DHT22;32477;51.474;5.696;2024-01-30T02:22:08;7.30;99.90
46732;DHT22;32477;51.474;5.696;2024-01-30T02:24:34;7.30;99.90
46732;DHT22;32477;51.474;5.696;2024-01-30T02:27:00;7.20;99.90
46732;DHT22;32477;51.474;5.696;2024-01-30T02:29:26;7.20;99.90
46732;DHT22;32477;51.474;5.696;2024-01-30T02:31:51;7.20;99.90
46732;DHT22;32477;51.474;5.696;2024-01-30T02:34:19;7.10;99.90
46732;DHT22;32477;51.474;5.696;2024-01-30T02:36:45;7.10;99.90
46732;DHT22;32477;51.474;5.696;2024-01-30T02:39:11;7.10;99.90
46732;DHT22;32477;51.474;5.696;2024-01-30T02:41:36;7.10;99.90
46732;DHT22;32477;51.474;5.696;2024-01-30T02:44:03;7.00;99.90
46732;DHT22;32477;51.474;5.696;2024-01-30T02:46:29;7.00;99.90
46732;DHT22;32477;51.474;5.696;2024-01-30T02:48:54;6.90;99.90
46732;DHT22;32477;51.474;5.696;2024-01-30T02:51:20;7.00;99.90
46732;DHT22;32477;51.474;5.696;2024-01-30T02:53:46;7.00;99.90
46732;DHT22;32477;51.474;5.696;2024-01-30T02:56:11;6.90;99.90
46732;DHT22;32477;51.474;5.696;2024-01-30T02:58:39;6.90;99.90
46732;DHT22;32477;51.474;5.696;2024-01-30T03:01:05;6.90;99.90
46732;DHT22;32477;51.474;5.696;2024-01-30T03:03:31;7.00;99.90
46732;DHT22;32477;51.474;5.696;2024-01-30T03:05:57;7.00;99.90
46732;DHT22;32477;51.474;5.696;2024-01-30T03:08:22;7.00;99.90
46732;DHT22;32477;51.474;5.696;2024-01-30T03:10:48;7.20;99.90
46732;DHT22;32477;51.474;5.696;2024-01-30T03:13:14;7.20;99.90
46732;DHT22;32477;51.474;5.696;2024-01-30T03:15:39;7.30;99.90
46732;DHT22;32477;51.474;5.696;2024-01-30T03:18:05;7.30;99.90
46732;DHT22;32477;51.474;5.696;2024-01-30T03:20:31;7.30;99.90
46732;DHT22;32477;51.474;5.696;2024-01-30T03:22:57;7.30;99.90
46732;DHT22;32477;51.474;5.696;2024-01-30T03:25:23;7.40;99.90
46732;DHT22;32477;51.474;5.696;2024-01-30T03:27:48;7.40;99.90
46732;DHT22;32477;51.474;5.696;2024-01-30T03:30:14;7.40;99.90
46732;DHT22;32477;51.474;5.696;2024-01-30T03:32:40;7.40;99.90
46732;DHT22;32477;51.474;5.696;2024-01-30T03:35:06;7.40;99.90
46732;DHT22;32477;51.474;5.696;2024-01-30T03:37:31;7.30;99.90
46732;DHT22;32477;51.474;5.696;2024-01-30T03:39:57;7.20;99.90
46732;DHT22;32477;51.474;5.696;2024-01-30T03:42:23;7.30;99.90
46732;DHT22;32477;51.474;5.696;2024-01-30T03:44:48;7.30;99.90
46732;DHT22;32477;51.474;5.696;2024-01-30T03:47:17;7.20;99.90
46732;DHT22;32477;51.474;5.696;2024-01-30T03:49:42;7.20;99.90
46732;DHT22;32477;51.474;5.696;2024-01-30T03:52:08;7.30;99.90
46732;DHT22;32477;51.474;5.696;2024-01-30T03:54:34;7.40;99.90
46732;DHT22;32477;51.474;5.696;2024-01-30T03:57:00;7.40;99.90
46732;DHT22;32477;51.474;5.696;2024-01-30T03:59:25;7.50;99.90
46732;DHT22;32477;51.474;5.696;2024-01-30T04:01:51;7.50;99.90
46732;DHT22;32477;51.474;5.696;2024-01-30T04:04:18;7.60;99.90
46732;DHT22;32477;51.474;5.696;2024-01-30T04:06:44;7.70;99.90
46732;DHT22;32477;51.474;5.696;2024-01-30T04:09:09;7.70;99.90
46732;DHT22;32477;51.474;5.696;2024-01-30T04:11:36;7.80;99.90
46732;DHT22;32477;51.474;5.696;2024-01-30T04:14:02;7.80;99.90
46732;DHT22;32477;51.474;5.696;2024-01-30T04:16:27;7.80;99.90
46732;DHT22;32477;51.474;5.696;2024-01-30T04:18:53;7.80;99.90
46732;DHT22;32477;51.474;5.696;2024-01-30T04:21:21;7.90;99.90
46732;DHT22;32477;51.474;5.696;2024-01-30T04:23:47;7.90;99.90
46732;DHT22;32477;51.474;5.696;2024-01-30T04:26:13;7.80;99.90
46732;DHT22;32477;51.474;5.696;2024-01-30T04:28:41;7.80;99.90
46732;DHT22;32477;51.474;5.696;2024-01-30T04:31:07;7.80;99.90
46732;DHT22;32477;51.474;5.696;2024-01-30T04:33:33;7.80;99.90
46732;DHT22;32477;51.474;5.696;2024-01-30T04:35:58;7.80;99.90
46732;DHT22;32477;51.474;5.696;2024-01-30T04:38:24;7.80;99.90
46732;DHT22;32477;51.474;5.696;2024-01-30T04:40:50;7.70;99.90
46732;DHT22;32477;51.474;5.696;2024-01-30T04:43:15;7.70;99.90
46732;DHT22;32477;51.474;5.696;2024-01-30T04:45:41;7.70;99.90
46732;DHT22;32477;51.474;5.696;2024-01-30T04:48:07;7.70;99.90
46732;DHT22;32477;51.474;5.696;2024-01-30T04:50:33;7.70;99.90
46732;DHT22;32477;51.474;5.696;2024-01-30T04:52:58;7.70;99.90
46732;DHT22;32477;51.474;5.696;2024-01-30T04:55:24;7.70;99.90
46732;DHT22;32477;51.474;5.696;2024-01-30T04:57:49;7.70;99.90
46732;DHT22;32477;51.474;5.696;2024-01-30T05:00:15;7.80;99.90
46732;DHT22;32477;51.474;5.696;2024-01-30T05:02:41;7.90;99.90
46732;DHT22;32477;51.474;5.696;2024-01-30T05:05:07;7.90;99.90
46732;DHT22;32477;51.474;5.696;2024-01-30T05:07:33;8.00;99.90
46732;DHT22;32477;51.474;5.696;2024-01-30T05:09:59;7.90;99.90
46732;DHT22;32477;51.474;5.696;2024-01-30T05:12:25;7.90;99.90
46732;DHT22;32477;51.474;5.696;2024-01-30T05:14:51;7.90;99.90
46732;DHT22;32477;51.474;5.696;2024-01-30T05:17:17;7.90;99.90
46732;DHT22;32477;51.474;5.696;2024-01-30T05:19:43;7.90;99.90
46732;DHT22;32477;51.474;5.696;2024-01-30T05:22:09;7.90;99.90
46732;DHT22;32477;51.474;5.696;2024-01-30T05:24:35;8.00;99.90
46732;DHT22;32477;51.474;5.696;2024-01-30T05:27:01;8.00;99.90
46732;DHT22;32477;51.474;5.696;2024-01-30T05:29:27;8.10;99.90
46732;DHT22;32477;51.474;5.696;2024-01-30T05:31:52;8.20;99.90
46732;DHT22;32477;51.474;5.696;2024-01-30T05:34:18;8.20;99.90
46732;DHT22;32477;51.474;5.696;2024-01-30T05:36:44;8.30;99.90
46732;DHT22;32477;51.474;5.696;2024-01-30T05:39:09;8.20;99.90
46732;DHT22;32477;51.474;5.696;2024-01-30T05:41:35;8.20;99.90
46732;DHT22;32477;51.474;5.696;2024-01-30T05:44:01;8.30;99.90
46732;DHT22;32477;51.474;5.696;2024-01-30T05:46:27;8.30;99.90
46732;DHT22;32477;51.474;5.696;2024-01-30T05:48:53;8.30;99.90
46732;DHT22;32477;51.474;5.696;2024-01-30T05:51:18;8.40;99.90
46732;DHT22;32477;51.474;5.696;2024-01-30T05:53:44;8.30;99.90
46732;DHT22;32477;51.474;5.696;2024-01-30T05:56:09;8.40;99.90
46732;DHT22;32477;51.474;5.696;2024-01-30T05:58:35;8.30;99.90
46732;DHT22;32477;51.474;5.696;2024-01-30T06:01:06;8.40;99.90
46732;DHT22;32477;51.474;5.696;2024-01-30T06:03:32;8.30;99.90
46732;DHT22;32477;51.474;5.696;2024-01-30T06:05:57;8.40;99.90
46732;DHT22;32477;51.474;5.696;2024-01-30T06:08:23;8.30;99.90
46732;DHT22;32477;51.474;5.696;2024-01-30T06:10:48;8.30;99.90
46732;DHT22;32477;51.474;5.696;2024-01-30T06:13:14;8.30;99.90
46732;DHT22;32477;51.474;5.696;2024-01-30T06:15:41;8.30;99.90
46732;DHT22;32477;51.474;5.696;2024-01-30T06:18:06;8.20;99.90
46732;DHT22;32477;51.474;5.696;2024-01-30T06:20:32;8.20;99.90
46732;DHT22;32477;51.474;5.696;2024-01-30T06:22:58;8.20;99.90
46732;DHT22;32477;51.474;5.696;2024-01-30T06:25:23;8.20;99.90
46732;DHT22;32477;51.474;5.696;2024-01-30T06:27:49;8.20;99.90
46732;DHT22;32477;51.474;5.696;2024-01-30T06:30:14;8.30;99.90
46732;DHT22;32477;51.474;5.696;2024-01-30T06:32:41;8.30;99.90
46732;DHT22;32477;51.474;5.696;2024-01-30T06:35:10;8.20;99.90
46732;DHT22;32477;51.474;5.696;2024-01-30T06:37:38;8.30;99.90
46732;DHT22;32477;51.474;5.696;2024-01-30T06:40:04;8.30;99.90
46732;DHT22;32477;51.474;5.696;2024-01-30T06:42:30;8.30;99.90
46732;DHT22;32477;51.474;5.696;2024-01-30T06:44:56;8.30;99.90
46732;DHT22;32477;51.474;5.696;2024-01-30T06:47:22;8.30;99.90
46732;DHT22;32477;51.474;5.696;2024-01-30T06:49:47;8.30;99.90
46732;DHT22;32477;51.474;5.696;2024-01-30T06:52:13;8.40;99.90
46732;DHT22;32477;51.474;5.696;2024-01-30T06:54:39;8.40;99.90
46732;DHT22;32477;51.474;5.696;2024-01-30T06:57:05;8.50;99.90
46732;DHT22;32477;51.474;5.696;2024-01-30T06:59:34;8.50;99.90
46732;DHT22;32477;51.474;5.696;2024-01-30T07:02:00;8.50;99.90
46732;DHT22;32477;51.474;5.696;2024-01-30T07:04:26;8.50;99.90
46732;DHT22;32477;51.474;5.696;2024-01-30T07:06:51;8.60;99.90
46732;DHT22;32477;51.474;5.696;2024-01-30T07:09:18;8.70;99.90
46732;DHT22;32477;51.474;5.696;2024-01-30T07:11:44;8.90;99.90
46732;DHT22;32477;51.474;5.696;2024-01-30T07:14:10;8.90;99.90
46732;DHT22;32477;51.474;5.696;2024-01-30T07:16:36;8.90;99.90
46732;DHT22;32477;51.474;5.696;2024-01-30T07:19:01;9.00;99.90
46732;DHT22;32477;51.474;5.696;2024-01-30T07:21:27;9.10;99.90
46732;DHT22;32477;51.474;5.696;2024-01-30T07:23:57;9.20;99.90
46732;DHT22;32477;51.474;5.696;2024-01-30T07:26:22;9.20;99.90
46732;DHT22;32477;51.474;5.696;2024-01-30T07:28:48;9.20;99.90
46732;DHT22;32477;51.474;5.696;2024-01-30T07:31:15;9.30;99.90
46732;DHT22;32477;51.474;5.696;2024-01-30T07:33:41;9.40;99.90
46732;DHT22;32477;51.474;5.696;2024-01-30T07:36:06;9.50;99.90
46732;DHT22;32477;51.474;5.696;2024-01-30T07:38:32;9.70;99.90
46732;DHT22;32477;51.474;5.696;2024-01-30T07:40:58;9.70;99.90
46732;DHT22;32477;51.474;5.696;2024-01-30T07:43:23;9.80;99.90
46732;DHT22;32477;51.474;5.696;2024-01-30T07:45:49;9.90;99.90
46732;DHT22;32477;51.474;5.696;2024-01-30T07:48:15;10.00;99.90
46732;DHT22;32477;51.474;5.696;2024-01-30T07:50:40;10.00;99.90
46732;DHT22;32477;51.474;5.696;2024-01-30T07:53:06;10.00;99.90
46732;DHT22;32477;51.474;5.696;2024-01-30T07:55:32;10.00;99.90
46732;DHT22;32477;51.474;5.696;2024-01-30T07:57:58;10.10;99.90
46732;DHT22;32477;51.474;5.696;2024-01-30T08:00:26;10.10;99.90
46732;DHT22;32477;51.474;5.696;2024-01-30T08:02:54;10.10;99.90
46732;DHT22;32477;51.474;5.696;2024-01-30T08:05:21;10.10;99.90
46732;DHT22;32477;51.474;5.696;2024-01-30T08:07:48;10.10;99.90
46732;DHT22;32477;51.474;5.696;2024-01-30T08:10:14;10.10;99.90
46732;DHT22;32477;51.474;5.696;2024-01-30T08:12:41;10.10;99.90
46732;DHT22;32477;51.474;5.696;2024-01-30T08:15:07;10.10;99.90
46732;DHT22;32477;51.474;5.696;2024-01-30T08:17:33;10.20;99.90
46732;DHT22;32477;51.474;5.696;2024-01-30T08:19:59;10.40;99.90
46732;DHT22;32477;51.474;5.696;2024-01-30T08:22:24;10.40;99.90
46732;DHT22;32477;51.474;5.696;2024-01-30T08:24:50;10.40;99.90
46732;DHT22;32477;51.474;5.696;2024-01-30T08:27:16;10.40;99.90
46732;DHT22;32477;51.474;5.696;2024-01-30T08:29:41;10.50;99.90
46732;DHT22;32477;51.474;5.696;2024-01-30T08:32:07;10.50;99.90
46732;DHT22;32477;51.474;5.696;2024-01-30T08:34:33;10.50;99.90
46732;DHT22;32477;51.474;5.696;2024-01-30T08:36:59;10.40;99.90
46732;DHT22;32477;51.474;5.696;2024-01-30T08:39:24;10.50;99.90
46732;DHT22;32477;51.474;5.696;2024-01-30T08:41:50;10.50;99.90
46732;DHT22;32477;51.474;5.696;2024-01-30T08:44:16;10.60;99.90
46732;DHT22;32477;51.474;5.696;2024-01-30T08:46:45;10.60;99.90
46732;DHT22;32477;51.474;5.696;2024-01-30T08:49:12;10.60;99.90
46732;DHT22;32477;51.474;5.696;2024-01-30T08:51:40;10.70;99.90
46732;DHT22;32477;51.474;5.696;2024-01-30T08:54:06;10.70;99.90
46732;DHT22;32477;51.474;5.696;2024-01-30T08:56:32;10.70;99.90
46732;DHT22;32477;51.474;5.696;2024-01-30T08:58:57;10.70;99.90
46732;DHT22;32477;51.474;5.696;2024-01-30T09:01:23;10.70;99.90
46732;DHT22;32477;51.474;5.696;2024-01-30T09:03:48;10.90;99.90
46732;DHT22;32477;51.474;5.696;2024-01-30T09:06:14;10.90;99.90
46732;DHT22;32477;51.474;5.696;2024-01-30T09:08:39;10.90;99.90
46732;DHT22;32477;51.474;5.696;2024-01-30T09:11:10;11.00;99.90
46732;DHT22;32477;51.474;5.696;2024-01-30T09:13:36;10.90;99.90
46732;DHT22;32477;51.474;5.696;2024-01-30T09:16:02;11.00;99.90
46732;DHT22;32477;51.474;5.696;2024-01-30T09:18:28;11.10;99.90
46732;DHT22;32477;51.474;5.696;2024-01-30T09:20:54;11.10;99.90
46732;DHT22;32477;51.474;5.696;2024-01-30T09:23:19;11.10;99.90
46732;DHT22;32477;51.474;5.696;2024-01-30T09:25:45;11.20;99.90
46732;DHT22;32477;51.474;5.696;2024-01-30T09:28:11;11.20;99.90
46732;DHT22;32477;51.474;5.696;2024-01-30T09:30:36;11.30;99.90
46732;DHT22;32477;51.474;5.696;2024-01-30T09:33:02;11.30;99.90
46732;DHT22;32477;51.474;5.696;2024-01-30T09:35:28;11.40;99.90
46732;DHT22;32477;51.474;5.696;2024-01-30T09:37:54;11.30;99.90
46732;DHT22;32477;51.474;5.696;2024-01-30T09:40:20;11.40;99.90
46732;DHT22;32477;51.474;5.696;2024-01-30T09:42:50;11.40;99.90
46732;DHT22;32477;51.474;5.696;2024-01-30T09:45:18;11.30;99.90
46732;DHT22;32477;51.474;5.696;2024-01-30T09:47:45;11.50;99.90
46732;DHT22;32477;51.474;5.696;2024-01-30T09:50:13;11.50;99.90
46732;DHT22;32477;51.474;5.696;2024-01-30T09:52:39;11.30;99.90
46732;DHT22;32477;51.474;5.696;2024-01-30T09:55:06;11.40;99.90
46732;DHT22;32477;51.474;5.696;2024-01-30T09:57:33;11.50;99.90
46732;DHT22;32477;51.474;5.696;2024-01-30T09:59:59;11.50;99.90
46732;DHT22;32477;51.474;5.696;2024-01-30T10:02:25;11.50;99.90
46732;DHT22;32477;51.474;5.696;2024-01-30T10:04:51;11.60;99.90
46732;DHT22;32477;51.474;5.696;2024-01-30T10:07:17;11.50;99.90
46732;DHT22;32477;51.474;5.696;2024-01-30T10:09:43;11.50;99.90
46732;DHT22;32477;51.474;5.696;2024-01-30T10:12:09;11.60;99.90
46732;DHT22;32477;51.474;5.696;2024-01-30T10:14:41;11.60;99.90
46732;DHT22;32477;51.474;5.696;2024-01-30T10:17:11;11.70;99.90
46732;DHT22;32477;51.474;5.696;2024-01-30T10:19:38;11.70;99.90
46732;DHT22;32477;51.474;5.696;2024-01-30T10:22:04;11.90;99.90
46732;DHT22;32477;51.474;5.696;2024-01-30T10:24:30;12.10;99.90
46732;DHT22;32477;51.474;5.696;2024-01-30T10:26:57;12.40;99.90
46732;DHT22;32477;51.474;5.696;2024-01-30T10:29:22;12.50;99.90
46732;DHT22;32477;51.474;5.696;2024-01-30T10:32:01;12.60;99.90
46732;DHT22;32477;51.474;5.696;2024-01-30T10:34:27;12.50;99.90
46732;DHT22;32477;51.474;5.696;2024-01-30T10:37:09;12.40;99.90
46732;DHT22;32477;51.474;5.696;2024-01-30T10:39:39;12.30;99.90
46732;DHT22;32477;51.474;5.696;2024-01-30T10:42:05;12.30;99.90
46732;DHT22;32477;51.474;5.696;2024-01-30T10:47:18;12.20;99.90
46732;DHT22;32477;51.474;5.696;2024-01-30T10:49:47;12.20;99.90
46732;DHT22;32477;51.474;5.696;2024-01-30T10:52:13;12.20;99.90
46732;DHT22;32477;51.474;5.696;2024-01-30T10:54:40;12.10;99.90
46732;DHT22;32477;51.474;5.696;2024-01-30T10:57:09;12.20;99.90
46732;DHT22;32477;51.474;5.696;2024-01-30T10:59:36;12.30;99.90
46732;DHT22;32477;51.474;5.696;2024-01-30T11:02:02;12.40;99.90
46732;DHT22;32477;51.474;5.696;2024-01-30T11:04:38;12.50;99.90
46732;DHT22;32477;51.474;5.696;2024-01-30T11:07:27;12.40;99.90
46732;DHT22;32477;51.474;5.696;2024-01-30T11:12:29;12.30;99.90
46732;DHT22;32477;51.474;5.696;2024-01-30T11:17:51;12.30;99.90
46732;DHT22;32477;51.474;5.696;2024-01-30T11:20:21;12.50;99.90
46732;DHT22;32477;51.474;5.696;2024-01-30T11:22:47;12.60;99.90
46732;DHT22;32477;51.474;5.696;2024-01-30T11:25:17;12.80;99.90
46732;DHT22;32477;51.474;5.696;2024-01-30T11:27:45;13.00;99.90
46732;DHT22;32477;51.474;5.696;2024-01-30T11:30:21;13.20;99.90
46732;DHT22;32477;51.474;5.696;2024-01-30T11:33:08;13.20;99.90
46732;DHT22;32477;51.474;5.696;2024-01-30T11:35:44;13.10;99.90
46732;DHT22;32477;51.474;5.696;2024-01-30T11:38:15;12.90;99.90
46732;DHT22;32477;51.474;5.696;2024-01-30T11:40:41;12.70;99.90
46732;DHT22;32477;51.474;5.696;2024-01-30T11:43:08;12.70;99.90
46732;DHT22;32477;51.474;5.696;2024-01-30T11:45:35;12.70;99.90
46732;DHT22;32477;51.474;5.696;2024-01-30T11:48:01;12.70;99.90
46732;DHT22;32477;51.474;5.696;2024-01-30T11:50:32;12.80;99.90
46732;DHT22;32477;51.474;5.696;2024-01-30T11:52:59;12.90;99.90
46732;DHT22;32477;51.474;5.696;2024-01-30T11:55:25;13.10;99.90
46732;DHT22;32477;51.474;5.696;2024-01-30T11:57:54;13.10;99.90
46732;DHT22;32477;51.474;5.696;2024-01-30T12:00:20;13.10;99.90
46732;DHT22;32477;51.474;5.696;2024-01-30T12:02:53;13.10;99.90
46732;DHT22;32477;51.474;5.696;2024-01-30T12:05:23;13.10;99.90
46732;DHT22;32477;51.474;5.696;2024-01-30T12:07:49;13.20;99.90
46732;DHT22;32477;51.474;5.696;2024-01-30T12:10:15;13.70;99.90
46732;DHT22;32477;51.474;5.696;2024-01-30T12:12:46;13.80;99.90
46732;DHT22;32477;51.474;5.696;2024-01-30T12:15:13;13.70;99.90
46732;DHT22;32477;51.474;5.696;2024-01-30T12:17:39;13.50;99.90
46732;DHT22;32477;51.474;5.696;2024-01-30T12:20:08;13.40;99.90
46732;DHT22;32477;51.474;5.696;2024-01-30T12:22:39;13.30;99.90
46732;DHT22;32477;51.474;5.696;2024-01-30T12:25:11;13.30;99.90
46732;DHT22;32477;51.474;5.696;2024-01-30T12:27:38;13.30;99.90
46732;DHT22;32477;51.474;5.696;2024-01-30T12:30:11;13.20;99.90
46732;DHT22;32477;51.474;5.696;2024-01-30T12:32:44;13.10;99.90
46732;DHT22;32477;51.474;5.696;2024-01-30T12:35:10;13.10;99.90
46732;DHT22;32477;51.474;5.696;2024-01-30T12:37:37;13.00;99.90
46732;DHT22;32477;51.474;5.696;2024-01-30T12:40:03;13.20;99.90
46732;DHT22;32477;51.474;5.696;2024-01-30T12:42:29;13.60;99.90
46732;DHT22;32477;51.474;5.696;2024-01-30T12:44:57;14.70;99.90
46732;DHT22;32477;51.474;5.696;2024-01-30T12:47:24;14.90;99.90
46732;DHT22;32477;51.474;5.696;2024-01-30T12:49:50;14.00;99.90
46732;DHT22;32477;51.474;5.696;2024-01-30T12:52:19;13.20;99.90
46732;DHT22;32477;51.474;5.696;2024-01-30T12:54:45;12.80;99.90
46732;DHT22;32477;51.474;5.696;2024-01-30T12:57:10;12.60;99.90
46732;DHT22;32477;51.474;5.696;2024-01-30T12:59:36;12.50;99.90
46732;DHT22;32477;51.474;5.696;2024-01-30T13:02:02;12.50;99.90
46732;DHT22;32477;51.474;5.696;2024-01-30T13:04:29;13.00;99.90
46732;DHT22;32477;51.474;5.696;2024-01-30T13:06:55;13.70;99.90
46732;DHT22;32477;51.474;5.696;2024-01-30T13:09:21;14.40;99.90
46732;DHT22;32477;51.474;5.696;2024-01-30T13:11:47;14.70;99.30
46732;DHT22;32477;51.474;5.696;2024-01-30T13:14:12;14.80;97.90
46732;DHT22;32477;51.474;5.696;2024-01-30T13:16:38;15.10;97.60
46732;DHT22;32477;51.474;5.696;2024-01-30T13:19:04;15.30;95.80
46732;DHT22;32477;51.474;5.696;2024-01-30T13:21:29;15.00;95.10
46732;DHT22;32477;51.474;5.696;2024-01-30T13:23:55;13.90;97.30
46732;DHT22;32477;51.474;5.696;2024-01-30T13:26:21;13.30;98.40
46732;DHT22;32477;51.474;5.696;2024-01-30T13:28:47;12.80;98.90
46732;DHT22;32477;51.474;5.696;2024-01-30T13:31:14;12.40;99.70
46732;DHT22;32477;51.474;5.696;2024-01-30T13:33:41;12.10;99.90
46732;DHT22;32477;51.474;5.696;2024-01-30T13:36:08;12.10;99.90
46732;DHT22;32477;51.474;5.696;2024-01-30T13:38:33;12.10;99.90
46732;DHT22;32477;51.474;5.696;2024-01-30T13:40:59;12.20;99.90
46732;DHT22;32477;51.474;5.696;2024-01-30T13:43:25;12.10;99.90
46732;DHT22;32477;51.474;5.696;2024-01-30T13:45:51;11.90;99.90
46732;DHT22;32477;51.474;5.696;2024-01-30T13:48:17;12.10;99.90
46732;DHT22;32477;51.474;5.696;2024-01-30T13:50:43;13.00;97.90
46732;DHT22;32477;51.474;5.696;2024-01-30T13:53:08;13.80;94.70
46732;DHT22;32477;51.474;5.696;2024-01-30T13:55:34;14.70;93.00
46732;DHT22;32477;51.474;5.696;2024-01-30T13:58:00;15.30;89.30
46732;DHT22;32477;51.474;5.696;2024-01-30T14:00:27;15.20;89.40
46732;DHT22;32477;51.474;5.696;2024-01-30T14:02:53;15.30;88.90
46732;DHT22;32477;51.474;5.696;2024-01-30T14:05:23;15.10;88.80
46732;DHT22;32477;51.474;5.696;2024-01-30T14:07:49;14.70;90.50
46732;DHT22;32477;51.474;5.696;2024-01-30T14:10:15;14.00;91.60
46732;DHT22;32477;51.474;5.696;2024-01-30T14:12:42;13.30;94.10
46732;DHT22;32477;51.474;5.696;2024-01-30T14:15:09;12.80;95.00
46732;DHT22;32477;51.474;5.696;2024-01-30T14:17:38;12.40;96.60
46732;DHT22;32477;51.474;5.696;2024-01-30T14:20:04;12.20;97.40
46732;DHT22;32477;51.474;5.696;2024-01-30T14:22:31;12.00;98.20
46732;DHT22;32477;51.474;5.696;2024-01-30T14:24:56;11.90;99.40
46732;DHT22;32477;51.474;5.696;2024-01-30T14:27:22;11.90;99.50
46732;DHT22;32477;51.474;5.696;2024-01-30T14:29:48;11.90;99.70
46732;DHT22;32477;51.474;5.696;2024-01-30T14:32:13;11.80;99.90
46732;DHT22;32477;51.474;5.696;2024-01-30T14:34:39;11.70;99.90
46732;DHT22;32477;51.474;5.696;2024-01-30T14:37:05;11.60;99.90
46732;DHT22;32477;51.474;5.696;2024-01-30T14:39:31;11.60;99.90
46732;DHT22;32477;51.474;5.696;2024-01-30T14:41:57;11.50;99.90
46732;DHT22;32477;51.474;5.696;2024-01-30T14:44:22;11.40;99.90
46732;DHT22;32477;51.474;5.696;2024-01-30T14:46:48;11.40;99.90
46732;DHT22;32477;51.474;5.696;2024-01-30T14:49:14;11.40;99.90
46732;DHT22;32477;51.474;5.696;2024-01-30T14:51:41;11.30;99.90
46732;DHT22;32477;51.474;5.696;2024-01-30T14:54:06;11.20;99.90
46732;DHT22;32477;51.474;5.696;2024-01-30T14:56:32;11.20;99.90
46732;DHT22;32477;51.474;5.696;2024-01-30T14:58:58;11.10;99.90
46732;DHT22;32477;51.474;5.696;2024-01-30T15:01:24;11.10;99.90
46732;DHT22;32477;51.474;5.696;2024-01-30T15:03:49;11.00;99.90
46732;DHT22;32477;51.474;5.696;2024-01-30T15:06:17;11.00;99.90
46732;DHT22;32477;51.474;5.696;2024-01-30T15:08:43;11.00;99.90
46732;DHT22;32477;51.474;5.696;2024-01-30T15:11:08;10.90;99.90
46732;DHT22;32477;51.474;5.696;2024-01-30T15:13:34;10.70;99.90
46732;DHT22;32477;51.474;5.696;2024-01-30T15:16:00;10.60;99.90
46732;DHT22;32477;51.474;5.696;2024-01-30T15:18:28;10.50;99.90
46732;DHT22;32477;51.474;5.696;2024-01-30T15:20:54;10.40;99.90
46732;DHT22;32477;51.474;5.696;2024-01-30T15:23:19;10.40;99.90
46732;DHT22;32477;51.474;5.696;2024-01-30T15:25:45;10.30;99.90
46732;DHT22;32477;51.474;5.696;2024-01-30T15:28:11;10.30;99.90
46732;DHT22;32477;51.474;5.696;2024-01-30T15:30:36;10.20;99.90
46732;DHT22;32477;51.474;5.696;2024-01-30T15:33:02;10.10;99.90
46732;DHT22;32477;51.474;5.696;2024-01-30T15:35:28;10.00;99.90
46732;DHT22;32477;51.474;5.696;2024-01-30T15:37:54;9.90;99.90
46732;DHT22;32477;51.474;5.696;2024-01-30T15:40:20;9.90;99.90